Time;durP1;ratioP1;P1;durP2;ratioP2;P2;SDS_P1;SDS_P2;PMS_P1;PMS_P2;Temp;Humidity;BMP_temperature;BMP_pressure;BME280_temperature;BME280_humidity;BME280_pressure;Samples;Min_cycle;Max_cycle;Signal;HPM_P1;HPM_P2
2021/06/03 00:02:00;;;;;;;;;;;14.00;80.10;;;;;;5118569;27;87206;-48
2021/06/03 00:04:25;;;;;;;;;;;14.00;80.10;;;;;;5119362;27;88708;-50
2021/06/03 00:06:51;;;;;;;;;;;14.00;80.00;;;;;;5122234;27;87194;-48
2021/06/03 00:09:17;;;;;;;;;;;14.00;80.00;;;;;;5120003;27;88095;-48
2021/06/03 00:11:42;;;;;;;;;;;14.00;80.00;;;;;;5119122;27;88077;-48
2021/06/03 00:14:08;;;;;;;;;;;14.00;80.00;;;;;;5118146;27;87190;-49
2021/06/03 00:16:34;;;;;;;;;;;14.00;80.00;;;;;;5117389;27;88190;-48
2021/06/03 00:19:00;;;;;;;;;;;14.00;80.00;;;;;;5121409;27;90419;-48
2021/06/03 00:21:26;;;;;;;;;;;13.90;79.80;;;;;;5120777;27;87143;-48
2021/06/03 00:23:51;;;;;;;;;;;14.00;79.90;;;;;;5119836;27;87501;-48
2021/06/03 00:26:17;;;;;;;;;;;13.90;79.80;;;;;;5118811;27;89450;-48
2021/06/03 00:28:42;;;;;;;;;;;13.90;79.90;;;;;;5121274;27;87150;-47
2021/06/03 00:31:08;;;;;;;;;;;13.90;79.80;;;;;;5117815;27;89590;-48
2021/06/03 00:33:33;;;;;;;;;;;13.90;79.80;;;;;;5119463;27;87247;-48
2021/06/03 00:35:59;;;;;;;;;;;13.90;79.80;;;;;;5119631;27;86908;-48
2021/06/03 00:38:24;;;;;;;;;;;13.90;79.80;;;;;;5120023;27;88043;-48
2021/06/03 00:40:50;;;;;;;;;;;13.90;79.70;;;;;;5123493;27;87145;-47
2021/06/03 00:43:16;;;;;;;;;;;13.80;79.70;;;;;;5124736;27;88165;-49
2021/06/03 00:45:41;;;;;;;;;;;13.80;79.60;;;;;;5123832;27;88929;-48
2021/06/03 00:48:07;;;;;;;;;;;13.80;79.60;;;;;;5121302;27;88109;-48
2021/06/03 00:50:37;;;;;;;;;;;13.80;79.60;;;;;;5123789;27;87146;-48
2021/06/03 00:53:04;;;;;;;;;;;13.80;79.60;;;;;;5123272;27;87177;-48
2021/06/03 00:55:31;;;;;;;;;;;13.80;79.60;;;;;;5121036;27;88027;-49
2021/06/03 00:57:56;;;;;;;;;;;13.70;79.50;;;;;;5125570;27;87781;-49
2021/06/03 01:00:22;;;;;;;;;;;13.70;79.50;;;;;;5125181;27;86425;-47
2021/06/03 01:02:47;;;;;;;;;;;13.80;79.50;;;;;;5123991;27;88259;-48
2021/06/03 01:05:17;;;;;;;;;;;13.70;79.50;;;;;;5124069;27;89415;-48
2021/06/03 01:07:43;;;;;;;;;;;13.70;79.50;;;;;;5121783;27;89001;-49
2021/06/03 01:10:14;;;;;;;;;;;13.70;79.40;;;;;;5123971;27;89803;-48
2021/06/03 01:12:46;;;;;;;;;;;13.70;79.40;;;;;;5122900;27;88542;-48
2021/06/03 01:15:12;;;;;;;;;;;13.70;79.40;;;;;;5125504;27;88948;-48
2021/06/03 01:17:38;;;;;;;;;;;13.70;79.40;;;;;;5123951;27;87907;-48
2021/06/03 01:20:05;;;;;;;;;;;13.70;79.40;;;;;;5123191;27;87206;-48
2021/06/03 01:22:37;;;;;;;;;;;13.70;79.40;;;;;;5120181;27;87237;-48
2021/06/03 01:25:04;;;;;;;;;;;13.60;79.30;;;;;;5123477;27;88018;-47
2021/06/03 01:27:32;;;;;;;;;;;13.60;79.30;;;;;;5125011;27;87207;-47
2021/06/03 01:30:16;;;;;;;;;;;13.60;79.30;;;;;;5123048;27;87189;-47
2021/06/03 01:32:43;;;;;;;;;;;13.60;79.30;;;;;;5126693;27;90038;-49
2021/06/03 01:35:11;;;;;;;;;;;13.60;79.30;;;;;;5123792;27;88809;-48
2021/06/03 01:37:38;;;;;;;;;;;13.60;79.30;;;;;;5119784;27;89135;-48
2021/06/03 01:40:06;;;;;;;;;;;13.60;79.30;;;;;;5122694;27;88268;-48
2021/06/03 01:42:31;;;;;;;;;;;13.60;79.30;;;;;;5103656;27;88913;-49
2021/06/03 01:44:57;;;;;;;;;;;13.50;79.30;;;;;;5121987;27;88256;-47
2021/06/03 01:47:23;;;;;;;;;;;13.50;79.30;;;;;;5122671;27;87174;-48
2021/06/03 01:49:48;;;;;;;;;;;13.50;79.30;;;;;;5123282;27;87635;-49
2021/06/03 01:52:14;;;;;;;;;;;13.50;79.20;;;;;;5122827;27;88031;-48
2021/06/03 01:54:41;;;;;;;;;;;13.50;79.20;;;;;;5126675;27;87244;-48
2021/06/03 01:57:07;;;;;;;;;;;13.50;79.20;;;;;;5122276;27;90162;-48
2021/06/03 01:59:34;;;;;;;;;;;13.50;79.20;;;;;;5123474;27;87135;-48
2021/06/03 02:01:59;;;;;;;;;;;13.50;79.20;;;;;;5123189;27;88990;-49
2021/06/03 02:04:25;;;;;;;;;;;13.40;79.10;;;;;;5123521;27;89599;-48
2021/06/03 02:06:52;;;;;;;;;;;13.40;79.20;;;;;;5124384;27;87141;-47
2021/06/03 02:09:18;;;;;;;;;;;13.40;79.20;;;;;;5123161;27;89170;-48
2021/06/03 02:11:45;;;;;;;;;;;13.40;79.10;;;;;;5122953;27;90390;-48
2021/06/03 02:14:13;;;;;;;;;;;13.40;79.10;;;;;;5122984;27;86481;-48
2021/06/03 02:17:01;;;;;;;;;;;13.40;79.00;;;;;;5123202;27;88649;-48
2021/06/03 02:19:33;;;;;;;;;;;13.40;79.10;;;;;;5107680;27;87114;-49
2021/06/03 02:21:59;;;;;;;;;;;13.40;79.00;;;;;;5120442;27;88088;-49
2021/06/03 02:24:26;;;;;;;;;;;13.30;78.90;;;;;;5119449;27;89412;-48
2021/06/03 02:26:51;;;;;;;;;;;13.30;79.00;;;;;;5119869;27;87120;-47
2021/06/03 02:29:17;;;;;;;;;;;13.30;79.00;;;;;;5119869;27;87255;-47
2021/06/03 02:31:44;;;;;;;;;;;13.30;79.10;;;;;;5119575;27;89112;-48
2021/06/03 02:34:09;;;;;;;;;;;13.30;79.10;;;;;;5119484;27;87997;-47
2021/06/03 02:36:35;;;;;;;;;;;13.30;79.00;;;;;;5119761;27;87123;-48
2021/06/03 02:39:00;;;;;;;;;;;13.30;79.00;;;;;;5123951;27;87431;-48
2021/06/03 02:41:26;;;;;;;;;;;13.30;79.00;;;;;;5120832;27;87172;-50
2021/06/03 02:43:52;;;;;;;;;;;13.30;79.00;;;;;;5121580;27;87251;-47
2021/06/03 02:46:20;;;;;;;;;;;13.30;79.00;;;;;;5119497;27;88105;-47
2021/06/03 02:48:45;;;;;;;;;;;13.30;79.00;;;;;;5123894;27;90155;-48
2021/06/03 02:51:11;;;;;;;;;;;13.20;78.90;;;;;;5120341;27;88219;-48
2021/06/03 02:53:37;;;;;;;;;;;13.20;78.80;;;;;;5118617;27;87120;-48
2021/06/03 02:56:03;;;;;;;;;;;13.20;78.90;;;;;;5119954;27;88641;-48
2021/06/03 02:58:28;;;;;;;;;;;13.20;78.80;;;;;;5123463;27;89590;-50
2021/06/03 03:00:54;;;;;;;;;;;13.20;78.90;;;;;;5125216;27;88828;-50
2021/06/03 03:03:19;;;;;;;;;;;13.20;78.90;;;;;;5122601;27;88976;-48
2021/06/03 03:05:45;;;;;;;;;;;13.20;78.80;;;;;;5122971;27;87233;-47
2021/06/03 03:08:11;;;;;;;;;;;13.20;78.90;;;;;;5122163;27;88743;-48
2021/06/03 03:10:41;;;;;;;;;;;13.20;78.90;;;;;;5122143;27;89005;-49
2021/06/03 03:13:07;;;;;;;;;;;13.10;78.90;;;;;;5123019;27;88288;-49
2021/06/03 03:15:34;;;;;;;;;;;13.10;78.80;;;;;;5122395;27;88013;-48
2021/06/03 03:18:00;;;;;;;;;;;13.10;78.90;;;;;;5122507;27;89586;-49
2021/06/03 03:20:26;;;;;;;;;;;13.10;78.90;;;;;;5125384;27;87211;-48
2021/06/03 03:22:52;;;;;;;;;;;13.10;78.90;;;;;;5119869;27;89000;-47
2021/06/03 03:25:18;;;;;;;;;;;13.10;78.90;;;;;;5118581;27;87158;-47
2021/06/03 03:27:45;;;;;;;;;;;13.10;78.90;;;;;;5121756;27;87142;-47
2021/06/03 03:30:11;;;;;;;;;;;13.10;78.90;;;;;;5122015;27;88044;-48
2021/06/03 03:32:37;;;;;;;;;;;13.00;78.80;;;;;;5120042;27;87117;-48
2021/06/03 03:35:04;;;;;;;;;;;13.00;78.80;;;;;;5117855;27;88874;-47
2021/06/03 03:37:30;;;;;;;;;;;13.00;78.80;;;;;;5118582;27;90852;-48
2021/06/03 03:39:58;;;;;;;;;;;13.00;78.80;;;;;;5118330;27;87142;-48
2021/06/03 03:42:24;;;;;;;;;;;13.00;78.90;;;;;;5124073;27;89014;-48
2021/06/03 03:44:50;;;;;;;;;;;13.00;78.80;;;;;;5122028;27;87124;-48
2021/06/03 03:47:15;;;;;;;;;;;13.00;78.80;;;;;;5121537;27;87127;-48
2021/06/03 03:49:41;;;;;;;;;;;13.00;78.90;;;;;;5122246;27;88163;-48
2021/06/03 03:52:06;;;;;;;;;;;13.00;78.80;;;;;;5121488;27;87994;-48
2021/06/03 03:54:32;;;;;;;;;;;12.90;78.80;;;;;;5118299;27;87964;-48
2021/06/03 03:56:58;;;;;;;;;;;12.90;78.80;;;;;;5118325;27;89679;-48
2021/06/03 03:59:24;;;;;;;;;;;12.90;78.80;;;;;;5119152;27;88143;-48
2021/06/03 04:01:53;;;;;;;;;;;12.90;78.80;;;;;;5120712;27;89551;-48
2021/06/03 04:04:22;;;;;;;;;;;12.90;78.80;;;;;;5123001;27;89485;-49
2021/06/03 04:06:48;;;;;;;;;;;12.90;78.90;;;;;;5120222;27;88682;-47
2021/06/03 04:09:13;;;;;;;;;;;12.90;78.90;;;;;;5120982;27;87985;-48
2021/06/03 04:11:39;;;;;;;;;;;12.90;78.80;;;;;;5122375;27;87171;-48
2021/06/03 04:14:04;;;;;;;;;;;12.90;78.80;;;;;;5121006;27;89076;-49
2021/06/03 04:16:30;;;;;;;;;;;12.90;78.80;;;;;;5121676;27;87775;-48
2021/06/03 04:18:55;;;;;;;;;;;12.80;78.80;;;;;;5122451;27;87132;-49
2021/06/03 04:21:21;;;;;;;;;;;12.80;78.80;;;;;;5123768;27;87631;-48
2021/06/03 04:23:47;;;;;;;;;;;12.80;78.80;;;;;;5122589;27;89156;-48
2021/06/03 04:26:12;;;;;;;;;;;12.80;78.70;;;;;;5128083;27;87105;-48
2021/06/03 04:28:38;;;;;;;;;;;12.80;78.80;;;;;;5125881;27;88036;-48
2021/06/03 04:31:04;;;;;;;;;;;12.80;78.80;;;;;;5126438;27;87459;-48
2021/06/03 04:33:30;;;;;;;;;;;12.80;78.80;;;;;;5126173;27;87142;-48
2021/06/03 04:35:55;;;;;;;;;;;12.80;78.80;;;;;;5123102;27;88095;-48
2021/06/03 04:38:21;;;;;;;;;;;12.80;78.80;;;;;;5121053;27;87236;-49
2021/06/03 04:40:47;;;;;;;;;;;12.80;78.80;;;;;;5121466;27;86442;-47
2021/06/03 04:43:12;;;;;;;;;;;12.80;78.80;;;;;;5121684;27;87827;-48
2021/06/03 04:45:38;;;;;;;;;;;12.80;78.80;;;;;;5122864;27;87150;-48
2021/06/03 04:48:08;;;;;;;;;;;12.80;78.80;;;;;;5124650;27;88838;-48
2021/06/03 04:50:34;;;;;;;;;;;12.80;78.80;;;;;;5124713;27;87220;-47
2021/06/03 04:53:00;;;;;;;;;;;12.80;78.90;;;;;;5124789;27;87157;-48
2021/06/03 04:55:26;;;;;;;;;;;12.70;78.80;;;;;;5124979;27;88961;-48
2021/06/03 04:57:53;;;;;;;;;;;12.70;78.80;;;;;;5124992;27;88641;-49
2021/06/03 05:00:23;;;;;;;;;;;12.70;78.80;;;;;;5125692;27;87579;-50
2021/06/03 05:02:49;;;;;;;;;;;12.70;78.80;;;;;;5121693;27;87842;-47
2021/06/03 05:05:15;;;;;;;;;;;12.70;78.80;;;;;;5122771;27;86501;-48
2021/06/03 05:07:41;;;;;;;;;;;12.70;78.80;;;;;;5120885;27;87089;-47
2021/06/03 05:10:07;;;;;;;;;;;12.70;78.80;;;;;;5123927;27;88198;-49
2021/06/03 05:12:33;;;;;;;;;;;12.70;78.80;;;;;;5121109;27;89105;-48
2021/06/03 05:14:58;;;;;;;;;;;12.70;78.90;;;;;;5122370;27;88660;-48
2021/06/03 05:17:24;;;;;;;;;;;12.70;78.90;;;;;;5123931;27;87170;-48
2021/06/03 05:19:49;;;;;;;;;;;12.70;78.90;;;;;;5124997;27;89222;-47
2021/06/03 05:22:15;;;;;;;;;;;12.70;78.90;;;;;;5122511;27;89746;-47
2021/06/03 05:24:41;;;;;;;;;;;12.70;78.90;;;;;;5120349;27;88673;-48
2021/06/03 05:27:07;;;;;;;;;;;12.70;78.90;;;;;;5120418;27;87694;-48
2021/06/03 05:29:32;;;;;;;;;;;12.70;78.90;;;;;;5125239;27;87233;-48
2021/06/03 05:31:58;;;;;;;;;;;12.70;79.00;;;;;;5123161;27;87169;-48
2021/06/03 05:34:23;;;;;;;;;;;12.70;79.00;;;;;;5123990;27;87718;-48
2021/06/03 05:36:49;;;;;;;;;;;12.70;79.00;;;;;;5123771;27;89308;-48
2021/06/03 05:39:15;;;;;;;;;;;12.60;79.00;;;;;;5122474;27;88488;-47
2021/06/03 05:41:41;;;;;;;;;;;12.70;79.60;;;;;;5119863;27;88343;-48
2021/06/03 05:44:07;;;;;;;;;;;12.70;79.00;;;;;;5120539;27;87233;-49
2021/06/03 05:46:33;;;;;;;;;;;12.70;79.10;;;;;;5119902;27;87991;-47
2021/06/03 05:49:01;;;;;;;;;;;12.70;79.10;;;;;;5119643;27;90035;-48
2021/06/03 05:51:26;;;;;;;;;;;12.70;79.10;;;;;;5125147;27;88694;-48
2021/06/03 05:53:52;;;;;;;;;;;12.70;79.10;;;;;;5120208;27;87459;-48
2021/06/03 05:56:17;;;;;;;;;;;12.60;79.10;;;;;;5121209;27;87111;-47
2021/06/03 05:58:43;;;;;;;;;;;12.60;79.10;;;;;;5122492;27;87154;-48
2021/06/03 06:01:09;;;;;;;;;;;12.70;79.20;;;;;;5122325;27;88901;-48
2021/06/03 06:06:29;;;;;;;;;;;12.60;79.20;;;;;;5045633;27;87249;-47
2021/06/03 06:08:56;;;;;;;;;;;12.60;79.20;;;;;;5120665;27;88119;-47
2021/06/03 06:11:22;;;;;;;;;;;12.60;79.20;;;;;;5120480;27;87141;-48
2021/06/03 06:13:48;;;;;;;;;;;12.60;79.20;;;;;;5123054;27;88597;-48
2021/06/03 06:16:14;;;;;;;;;;;12.60;79.20;;;;;;5121174;27;87100;-49
2021/06/03 06:18:40;;;;;;;;;;;12.60;79.30;;;;;;5121488;27;88255;-47
2021/06/03 06:21:06;;;;;;;;;;;12.60;79.30;;;;;;5120967;27;88163;-48
2021/06/03 06:23:33;;;;;;;;;;;12.60;79.30;;;;;;5121665;27;87240;-50
2021/06/03 06:25:58;;;;;;;;;;;12.60;79.30;;;;;;5121454;27;88034;-48
2021/06/03 06:28:24;;;;;;;;;;;12.60;79.30;;;;;;5122999;27;88014;-49
2021/06/03 06:30:49;;;;;;;;;;;12.60;79.30;;;;;;5123899;27;87474;-47
2021/06/03 06:33:15;;;;;;;;;;;12.70;79.30;;;;;;5120753;27;88490;-48
2021/06/03 06:35:44;;;;;;;;;;;12.60;79.20;;;;;;5122305;27;88969;-48
2021/06/03 06:38:10;;;;;;;;;;;12.60;79.30;;;;;;5122495;27;89424;-49
2021/06/03 06:40:35;;;;;;;;;;;12.70;79.40;;;;;;5123912;27;87179;-47
2021/06/03 06:43:01;;;;;;;;;;;12.70;79.50;;;;;;5122903;27;86535;-47
2021/06/03 06:45:27;;;;;;;;;;;12.60;79.40;;;;;;5121417;27;88167;-48
2021/06/03 06:47:53;;;;;;;;;;;12.70;79.50;;;;;;5120949;27;89852;-48
2021/06/03 06:50:19;;;;;;;;;;;12.70;79.60;;;;;;5118417;27;88300;-48
2021/06/03 06:52:44;;;;;;;;;;;12.70;79.60;;;;;;5119368;27;88866;-48
2021/06/03 06:55:10;;;;;;;;;;;12.70;79.60;;;;;;5120372;27;88718;-49
2021/06/03 06:57:36;;;;;;;;;;;12.70;79.60;;;;;;5124375;27;87185;-49
2021/06/03 07:00:05;;;;;;;;;;;12.70;79.60;;;;;;5122211;27;88038;-48
2021/06/03 07:02:31;;;;;;;;;;;12.70;79.60;;;;;;5119917;27;87116;-48
2021/06/03 07:04:57;;;;;;;;;;;12.70;79.70;;;;;;5119598;27;87600;-47
2021/06/03 07:07:22;;;;;;;;;;;12.70;79.60;;;;;;5120809;27;88854;-49
2021/06/03 07:09:48;;;;;;;;;;;12.60;79.60;;;;;;5122047;27;87134;-48
2021/06/03 07:12:13;;;;;;;;;;;12.70;79.70;;;;;;5123108;27;89235;-48
2021/06/03 07:14:39;;;;;;;;;;;12.70;80.30;;;;;;5120011;27;90646;-47
2021/06/03 07:17:04;;;;;;;;;;;12.60;79.40;;;;;;5118713;27;87879;-47
2021/06/03 07:19:31;;;;;;;;;;;12.70;79.50;;;;;;5122088;27;87100;-48
2021/06/03 07:21:56;;;;;;;;;;;12.70;79.40;;;;;;5119923;27;87150;-47
2021/06/03 07:24:22;;;;;;;;;;;12.60;79.50;;;;;;5121151;27;87147;-47
2021/06/03 07:26:48;;;;;;;;;;;12.70;79.60;;;;;;5121104;27;89395;-48
2021/06/03 07:29:13;;;;;;;;;;;12.70;79.70;;;;;;5120713;27;87130;-48
2021/06/03 07:31:39;;;;;;;;;;;12.70;79.70;;;;;;5120101;27;87852;-48
2021/06/03 07:34:05;;;;;;;;;;;12.70;79.80;;;;;;5118730;27;88010;-47
2021/06/03 07:36:32;;;;;;;;;;;12.70;79.70;;;;;;5118475;27;87121;-48
2021/06/03 07:38:58;;;;;;;;;;;12.70;79.70;;;;;;5120567;27;88068;-47
2021/06/03 07:41:23;;;;;;;;;;;12.70;79.70;;;;;;5119119;27;87111;-48
2021/06/03 07:43:49;;;;;;;;;;;12.70;79.80;;;;;;5120203;27;88684;-48
2021/06/03 07:46:15;;;;;;;;;;;12.70;79.90;;;;;;5121346;27;87721;-47
2021/06/03 07:48:41;;;;;;;;;;;12.70;79.80;;;;;;5120917;27;87198;-47
2021/06/03 07:51:06;;;;;;;;;;;12.70;79.50;;;;;;5122442;27;87152;-48
2021/06/03 07:53:33;;;;;;;;;;;12.70;79.60;;;;;;5121185;27;88096;-47
2021/06/03 07:55:58;;;;;;;;;;;12.70;79.70;;;;;;5120007;27;88000;-47
2021/06/03 07:58:24;;;;;;;;;;;12.70;79.70;;;;;;5118418;27;87942;-47
2021/06/03 08:00:49;;;;;;;;;;;12.70;79.70;;;;;;5122296;27;88151;-48
2021/06/03 08:03:15;;;;;;;;;;;12.70;79.70;;;;;;5120522;27;88046;-48
2021/06/03 08:05:41;;;;;;;;;;;12.80;79.80;;;;;;5121800;27;88576;-49
2021/06/03 08:08:06;;;;;;;;;;;12.80;79.50;;;;;;5122397;27;88001;-48
2021/06/03 08:10:36;;;;;;;;;;;12.80;79.60;;;;;;5122033;27;87621;-47
2021/06/03 08:13:02;;;;;;;;;;;12.80;79.50;;;;;;5117319;27;89685;-48
2021/06/03 08:15:29;;;;;;;;;;;12.80;79.50;;;;;;5121729;27;87160;-47
2021/06/03 08:17:55;;;;;;;;;;;12.80;79.60;;;;;;5120430;27;87545;-48
2021/06/03 08:20:22;;;;;;;;;;;12.80;79.60;;;;;;5118799;27;88689;-49
2021/06/03 08:22:47;;;;;;;;;;;12.80;79.40;;;;;;5125725;27;87183;-48
2021/06/03 08:25:14;;;;;;;;;;;12.80;79.40;;;;;;5120036;27;87984;-47
2021/06/03 08:27:39;;;;;;;;;;;12.80;79.40;;;;;;5121855;27;88071;-48
2021/06/03 08:30:07;;;;;;;;;;;12.80;79.50;;;;;;5121297;27;88768;-48
2021/06/03 08:32:32;;;;;;;;;;;12.80;79.40;;;;;;5121234;27;88179;-48
2021/06/03 08:34:58;;;;;;;;;;;12.80;79.40;;;;;;5121650;27;88804;-48
2021/06/03 08:37:24;;;;;;;;;;;12.80;79.20;;;;;;5122026;27;88796;-48
2021/06/03 08:39:49;;;;;;;;;;;12.80;79.30;;;;;;5099278;27;88289;-48
2021/06/03 08:42:15;;;;;;;;;;;12.90;79.10;;;;;;5120579;27;88517;-47
2021/06/03 08:44:41;;;;;;;;;;;12.90;79.10;;;;;;5125080;27;87035;-48
2021/06/03 08:47:10;;;;;;;;;;;12.90;79.10;;;;;;5119977;27;87154;-48
2021/06/03 08:49:36;;;;;;;;;;;12.90;78.80;;;;;;5122322;27;88916;-47
2021/06/03 08:52:03;;;;;;;;;;;13.00;78.90;;;;;;5120831;27;90403;-48
2021/06/03 08:54:36;;;;;;;;;;;12.90;78.90;;;;;;5119991;27;87209;-48
2021/06/03 08:57:05;;;;;;;;;;;13.00;79.00;;;;;;5117124;27;88715;-48
2021/06/03 08:59:31;;;;;;;;;;;12.90;78.90;;;;;;5118270;27;90217;-48
2021/06/03 09:01:56;;;;;;;;;;;12.90;78.80;;;;;;5121248;27;87147;-48
2021/06/03 09:04:22;;;;;;;;;;;13.00;78.80;;;;;;5123623;27;89285;-47
2021/06/03 09:06:47;;;;;;;;;;;13.00;78.60;;;;;;5125633;27;87177;-47
2021/06/03 09:09:22;;;;;;;;;;;13.00;79.40;;;;;;5122477;27;88931;-48
2021/06/03 09:12:07;;;;;;;;;;;13.10;78.80;;;;;;5121875;27;89599;-48
2021/06/03 09:14:33;;;;;;;;;;;13.00;78.60;;;;;;5122408;27;87178;-48
2021/06/03 09:16:58;;;;;;;;;;;13.10;78.80;;;;;;5121088;27;88072;-49
2021/06/03 09:19:24;;;;;;;;;;;13.00;78.80;;;;;;5122568;27;88214;-48
2021/06/03 09:21:53;;;;;;;;;;;13.10;78.90;;;;;;5122808;27;87113;-48
2021/06/03 09:24:20;;;;;;;;;;;13.10;78.90;;;;;;5124604;27;87800;-48
2021/06/03 09:26:46;;;;;;;;;;;13.10;78.80;;;;;;5122744;27;90847;-47
2021/06/03 09:29:22;;;;;;;;;;;13.10;78.70;;;;;;5125343;27;87093;-47
2021/06/03 09:31:48;;;;;;;;;;;13.10;78.50;;;;;;5121994;27;88955;-48
2021/06/03 09:34:14;;;;;;;;;;;13.20;78.40;;;;;;5121584;27;86409;-48
2021/06/03 09:36:39;;;;;;;;;;;13.10;78.50;;;;;;5120467;27;88250;-48
2021/06/03 09:39:10;;;;;;;;;;;13.20;78.50;;;;;;5119660;27;88079;-48
2021/06/03 09:41:37;;;;;;;;;;;13.20;78.50;;;;;;5119701;27;88044;-48
2021/06/03 09:44:04;;;;;;;;;;;13.20;78.40;;;;;;5119689;27;88382;-48
2021/06/03 09:46:36;;;;;;;;;;;13.20;78.40;;;;;;5122391;27;90263;-48
2021/06/03 09:49:02;;;;;;;;;;;13.30;78.20;;;;;;5125376;27;87142;-48
2021/06/03 09:51:29;;;;;;;;;;;13.20;78.30;;;;;;5121494;27;87348;-47
2021/06/03 09:53:56;;;;;;;;;;;13.20;78.40;;;;;;5120443;27;87131;-47
2021/06/03 09:56:50;;;;;;;;;;;13.20;79.10;;;;;;5120111;27;88625;-47
2021/06/03 09:59:20;;;;;;;;;;;13.20;78.50;;;;;;5117030;27;88782;-48
2021/06/03 10:01:50;;;;;;;;;;;13.30;78.60;;;;;;5121636;27;87128;-49
2021/06/03 10:04:17;;;;;;;;;;;13.30;78.70;;;;;;5122140;27;88861;-47
2021/06/03 10:06:52;;;;;;;;;;;13.30;78.80;;;;;;5118613;27;88924;-47
2021/06/03 10:09:18;;;;;;;;;;;13.30;78.90;;;;;;5122813;27;87996;-47
2021/06/03 10:11:45;;;;;;;;;;;13.30;78.90;;;;;;5126285;27;87211;-48
2021/06/03 10:14:15;;;;;;;;;;;13.40;79.00;;;;;;5123191;27;87101;-48
2021/06/03 10:16:40;;;;;;;;;;;13.40;79.00;;;;;;5121495;27;88840;-47
2021/06/03 10:19:16;;;;;;;;;;;13.40;78.90;;;;;;5119280;27;89174;-48
2021/06/03 10:21:42;;;;;;;;;;;13.40;78.80;;;;;;5120687;27;87197;-48
2021/06/03 10:24:07;;;;;;;;;;;13.40;78.90;;;;;;5122392;27;86906;-48
2021/06/03 10:26:52;;;;;;;;;;;13.40;79.00;;;;;;5122973;27;87515;-48
2021/06/03 10:29:17;;;;;;;;;;;13.40;79.00;;;;;;5119447;27;87121;-48
2021/06/03 10:31:43;;;;;;;;;;;13.50;78.90;;;;;;5120021;27;88180;-49
2021/06/03 10:34:09;;;;;;;;;;;13.50;78.80;;;;;;5124434;27;88466;-48
2021/06/03 10:36:35;;;;;;;;;;;13.50;78.70;;;;;;5122066;27;87516;-47
2021/06/03 10:39:01;;;;;;;;;;;13.50;78.60;;;;;;5122045;27;87562;-48
2021/06/03 10:41:26;;;;;;;;;;;13.50;78.50;;;;;;5121828;27;87090;-47
2021/06/03 10:43:53;;;;;;;;;;;13.60;78.60;;;;;;5120724;27;88100;-49
2021/06/03 10:46:18;;;;;;;;;;;13.50;78.70;;;;;;5118782;27;89128;-49
2021/06/03 10:48:44;;;;;;;;;;;13.60;78.70;;;;;;5120694;27;86477;-48
2021/06/03 10:51:10;;;;;;;;;;;13.60;78.70;;;;;;5121594;27;87130;-48
2021/06/03 10:53:46;;;;;;;;;;;13.60;78.60;;;;;;5120407;27;87263;-47
2021/06/03 10:56:13;;;;;;;;;;;13.60;78.70;;;;;;5122619;27;88098;-48
2021/06/03 10:58:39;;;;;;;;;;;13.70;78.70;;;;;;5118653;27;88167;-49
2021/06/03 11:01:06;;;;;;;;;;;13.70;78.60;;;;;;5119319;27;87090;-48
2021/06/03 11:03:41;;;;;;;;;;;13.70;78.50;;;;;;5119404;27;87629;-47
2021/06/03 11:06:08;;;;;;;;;;;13.70;78.30;;;;;;5118057;27;89199;-48
2021/06/03 11:08:35;;;;;;;;;;;13.70;78.50;;;;;;5122905;27;88551;-48
2021/06/03 11:11:13;;;;;;;;;;;13.70;78.60;;;;;;5122283;27;87618;-48
2021/06/03 11:13:59;;;;;;;;;;;13.70;78.50;;;;;;5119823;27;89234;-47
2021/06/03 11:16:26;;;;;;;;;;;13.70;78.50;;;;;;5119465;27;87129;-48
2021/06/03 11:18:57;;;;;;;;;;;13.80;78.20;;;;;;5121858;27;87155;-48
2021/06/03 11:21:35;;;;;;;;;;;13.80;78.20;;;;;;5118499;27;88067;-48
2021/06/03 11:24:08;;;;;;;;;;;13.80;78.20;;;;;;5120265;27;89586;-48
2021/06/03 11:26:36;;;;;;;;;;;13.80;79.00;;;;;;5122266;27;88511;-47
2021/06/03 11:29:21;;;;;;;;;;;13.90;78.40;;;;;;5119859;27;87193;-48
2021/06/03 11:32:05;;;;;;;;;;;13.90;78.50;;;;;;5122190;27;88423;-48
2021/06/03 11:34:40;;;;;;;;;;;13.90;78.60;;;;;;5118559;27;89660;-48
2021/06/03 11:37:09;;;;;;;;;;;13.90;78.60;;;;;;5121357;27;87145;-47
2021/06/03 11:39:37;;;;;;;;;;;14.00;78.60;;;;;;5123454;27;86887;-47
2021/06/03 11:42:15;;;;;;;;;;;14.00;78.50;;;;;;5123023;27;87111;-47
2021/06/03 11:45:04;;;;;;;;;;;14.00;78.60;;;;;;5120771;27;88829;-48
2021/06/03 11:47:34;;;;;;;;;;;14.00;78.50;;;;;;5103399;27;89879;-48
2021/06/03 11:49:59;;;;;;;;;;;14.00;78.50;;;;;;5118413;27;87168;-48
2021/06/03 11:52:25;;;;;;;;;;;14.10;78.90;;;;;;5119544;27;87582;-47
2021/06/03 11:54:50;;;;;;;;;;;14.10;78.50;;;;;;5101694;27;91718;-47
2021/06/03 11:57:16;;;;;;;;;;;14.10;78.40;;;;;;5122238;27;87092;-48
2021/06/03 11:59:55;;;;;;;;;;;14.10;78.50;;;;;;5122010;27;88682;-48
2021/06/03 12:02:27;;;;;;;;;;;14.10;79.20;;;;;;5122242;27;87618;-47
2021/06/03 12:07:39;;;;;;;;;;;14.10;78.70;;;;;;5122240;27;88099;-47
2021/06/03 12:10:05;;;;;;;;;;;14.20;78.80;;;;;;5118275;27;87148;-48
2021/06/03 12:12:32;;;;;;;;;;;14.20;78.60;;;;;;5118779;27;88617;-48
2021/06/03 12:14:58;;;;;;;;;;;14.20;78.60;;;;;;5118634;27;87973;-48
2021/06/03 12:17:24;;;;;;;;;;;14.20;78.60;;;;;;5119891;27;87138;-49
2021/06/03 12:19:51;;;;;;;;;;;14.30;79.20;;;;;;5120473;27;87958;-47
2021/06/03 12:22:18;;;;;;;;;;;14.30;78.60;;;;;;5118474;27;89126;-48
2021/06/03 12:24:47;;;;;;;;;;;14.30;78.60;;;;;;5121500;27;87185;-48
2021/06/03 12:27:28;;;;;;;;;;;14.30;78.60;;;;;;5121105;27;89152;-48
2021/06/03 12:29:54;;;;;;;;;;;14.40;78.40;;;;;;5122765;27;88071;-48
2021/06/03 12:32:21;;;;;;;;;;;14.40;78.20;;;;;;5122351;27;88595;-48
2021/06/03 12:34:47;;;;;;;;;;;14.40;78.40;;;;;;5122201;27;88306;-48
2021/06/03 12:37:20;;;;;;;;;;;14.40;78.40;;;;;;5124143;27;88069;-48
2021/06/03 12:39:46;;;;;;;;;;;14.40;78.20;;;;;;5122780;27;88418;-48
2021/06/03 12:42:11;;;;;;;;;;;14.40;78.20;;;;;;5124936;27;88501;-49
2021/06/03 12:44:37;;;;;;;;;;;14.40;78.20;;;;;;5126074;27;87167;-47
2021/06/03 12:47:06;;;;;;;;;;;14.50;78.30;;;;;;5128235;27;89126;-47
2021/06/03 12:49:32;;;;;;;;;;;14.50;78.30;;;;;;5121289;27;88098;-49
2021/06/03 12:52:02;;;;;;;;;;;14.50;78.10;;;;;;5121379;27;87213;-48
2021/06/03 12:54:28;;;;;;;;;;;14.50;77.90;;;;;;5123519;27;88810;-47
2021/06/03 12:56:54;;;;;;;;;;;14.50;78.00;;;;;;5124511;27;87180;-48
2021/06/03 12:59:23;;;;;;;;;;;14.50;78.10;;;;;;5124706;27;87865;-48
2021/06/03 13:01:56;;;;;;;;;;;14.60;78.20;;;;;;5119829;27;89837;-48
2021/06/03 13:04:22;;;;;;;;;;;14.50;78.20;;;;;;5124784;27;87115;-49
2021/06/03 13:06:48;;;;;;;;;;;14.60;78.30;;;;;;5125748;27;87430;-48
2021/06/03 13:09:13;;;;;;;;;;;14.60;78.30;;;;;;5125536;27;88867;-48
2021/06/03 13:11:40;;;;;;;;;;;14.60;78.30;;;;;;5120704;27;87634;-48
2021/06/03 13:14:10;;;;;;;;;;;14.60;77.80;;;;;;5121499;27;89805;-47
2021/06/03 13:16:35;;;;;;;;;;;14.70;77.90;;;;;;5122494;27;87144;-48
2021/06/03 13:19:08;;;;;;;;;;;14.70;77.80;;;;;;5123103;27;88245;-48
2021/06/03 13:21:33;;;;;;;;;;;14.70;77.80;;;;;;5120908;27;88237;-48
2021/06/03 13:23:59;;;;;;;;;;;14.80;77.90;;;;;;5122132;27;87220;-49
2021/06/03 13:26:24;;;;;;;;;;;14.80;77.90;;;;;;5122307;27;88131;-48
2021/06/03 13:28:50;;;;;;;;;;;14.80;77.90;;;;;;5123294;27;88615;-48
2021/06/03 13:31:18;;;;;;;;;;;14.80;78.00;;;;;;5127665;27;87168;-47
2021/06/03 13:33:43;;;;;;;;;;;14.80;77.90;;;;;;5122177;27;88334;-48
2021/06/03 13:36:11;;;;;;;;;;;14.80;78.10;;;;;;5122571;27;87202;-48
2021/06/03 13:38:44;;;;;;;;;;;14.90;78.00;;;;;;5121181;27;88009;-48
2021/06/03 13:41:10;;;;;;;;;;;14.90;78.00;;;;;;5122459;27;89364;-47
2021/06/03 13:43:36;;;;;;;;;;;14.90;78.10;;;;;;5123165;27;87763;-48
2021/06/03 13:46:04;;;;;;;;;;;15.00;77.70;;;;;;5120153;27;88376;-48
2021/06/03 13:48:30;;;;;;;;;;;15.10;77.40;;;;;;5123126;27;88087;-52
2021/06/03 13:50:57;;;;;;;;;;;15.10;77.40;;;;;;5126218;27;89023;-48
2021/06/03 13:53:37;;;;;;;;;;;15.10;77.30;;;;;;5123561;27;89707;-50
2021/06/03 13:56:16;;;;;;;;;;;15.20;77.50;;;;;;5120188;27;87157;-47
2021/06/03 13:58:57;;;;;;;;;;;15.20;77.10;;;;;;5123768;27;87213;-48
2021/06/03 14:01:28;;;;;;;;;;;15.20;77.30;;;;;;5123812;27;89372;-49
2021/06/03 14:04:03;;;;;;;;;;;15.20;77.10;;;;;;5124151;27;87126;-47
2021/06/03 14:06:49;;;;;;;;;;;15.30;77.00;;;;;;5120151;27;88835;-47
2021/06/03 14:09:18;;;;;;;;;;;15.30;76.60;;;;;;5120217;27;89010;-48
2021/06/03 14:14:19;;;;;;;;;;;15.30;76.70;;;;;;5126871;27;87244;-47
2021/06/03 14:17:03;;;;;;;;;;;15.40;76.40;;;;;;5118972;27;88084;-48
2021/06/03 14:19:29;;;;;;;;;;;15.40;76.30;;;;;;5122564;27;88506;-47
2021/06/03 14:21:57;;;;;;;;;;;15.50;75.70;;;;;;5122624;27;89407;-48
2021/06/03 14:24:27;;;;;;;;;;;15.50;76.10;;;;;;5120067;27;87142;-47
2021/06/03 14:26:53;;;;;;;;;;;15.50;76.10;;;;;;5121657;27;89039;-47